Time;durP1;ratioP1;P1;durP2;ratioP2;P2;SDS_P1;SDS_P2;PMS_P1;PMS_P2;Temp;Humidity;BMP_temperature;BMP_pressure;BME280_temperature;BME280_humidity;BME280_pressure;Samples;Min_cycle;Max_cycle;Signal;HPM_P1;HPM_P2
2021/01/09 00:00:44;;;;;;;7.78;3.08;;;-0.80;99.90;;;;;;5053877;28;20025;-74
2021/01/09 00:03:10;;;;;;;7.32;3.15;;;-0.80;99.90;;;;;;5036134;28;20028;-74
2021/01/09 00:05:36;;;;;;;9.10;3.03;;;-0.80;99.90;;;;;;5035552;28;20028;-74
2021/01/09 00:08:01;;;;;;;9.73;3.40;;;-0.70;99.90;;;;;;5053521;28;20481;-74
2021/01/09 00:10:27;;;;;;;10.52;3.60;;;-0.70;99.90;;;;;;5056275;28;20509;-74
2021/01/09 00:12:52;;;;;;;7.53;2.88;;;-0.70;99.90;;;;;;5073477;28;20096;-74
2021/01/09 00:15:18;;;;;;;9.23;3.38;;;-0.60;99.90;;;;;;5055636;28;20017;-74
2021/01/09 00:17:43;;;;;;;15.15;4.22;;;-0.60;99.90;;;;;;5073155;28;20078;-74
2021/01/09 00:20:10;;;;;;;12.70;3.90;;;-0.60;99.90;;;;;;5073185;28;20507;-74
2021/01/09 00:22:36;;;;;;;7.70;3.35;;;-0.60;99.90;;;;;;5054994;28;20031;-74
2021/01/09 00:25:05;;;;;;;14.43;4.28;;;-0.60;99.90;;;;;;5065576;28;20028;-74
2021/01/09 00:27:30;;;;;;;11.68;3.90;;;-0.50;99.90;;;;;;5052808;28;20025;-74
2021/01/09 00:29:56;;;;;;;18.30;5.18;;;-0.60;99.90;;;;;;5035532;28;20025;-74
2021/01/09 00:32:21;;;;;;;12.15;4.85;;;-0.60;99.90;;;;;;5053158;28;20017;-74
2021/01/09 00:34:47;;;;;;;21.63;5.30;;;-0.60;99.90;;;;;;5053123;28;20013;-74
2021/01/09 00:37:12;;;;;;;21.92;5.88;;;-0.70;99.90;;;;;;5052983;28;20028;-74
2021/01/09 00:39:38;;;;;;;13.35;5.55;;;-0.70;99.90;;;;;;5053159;28;20040;-74
2021/01/09 00:42:04;;;;;;;11.45;5.18;;;-0.70;99.90;;;;;;5053030;28;20048;-74
2021/01/09 00:44:29;;;;;;;12.70;4.55;;;-0.80;99.90;;;;;;5053028;28;20029;-74
2021/01/09 00:46:56;;;;;;;13.80;4.22;;;-0.80;99.90;;;;;;5034995;28;20464;-74
2021/01/09 00:49:21;;;;;;;11.93;4.35;;;-0.80;99.90;;;;;;5055961;28;20023;-74
2021/01/09 00:51:47;;;;;;;15.60;5.15;;;-0.80;99.90;;;;;;5038843;28;20029;-74
2021/01/09 00:54:13;;;;;;;9.13;4.47;;;-0.80;99.90;;;;;;5038443;28;20021;-74
2021/01/09 00:56:38;;;;;;;10.80;4.07;;;-0.80;99.90;;;;;;5056328;28;20095;-74
2021/01/09 00:59:04;;;;;;;10.43;3.72;;;-0.80;99.90;;;;;;5038437;28;20389;-74
2021/01/09 01:01:29;;;;;;;11.38;3.72;;;-0.80;99.90;;;;;;5038347;28;20529;-74
2021/01/09 01:03:55;;;;;;;11.90;3.90;;;-0.80;99.90;;;;;;5038342;28;20033;-74
2021/01/09 01:06:24;;;;;;;6.65;2.83;;;-0.80;99.90;;;;;;5056562;28;20025;-74
2021/01/09 01:08:50;;;;;;;12.13;2.97;;;-0.90;99.90;;;;;;5038405;28;20099;-74
2021/01/09 01:11:26;;;;;;;11.48;2.95;;;-0.90;99.90;;;;;;5056445;28;20013;-74
2021/01/09 01:13:52;;;;;;;16.08;3.45;;;-0.90;99.90;;;;;;5038381;28;20112;-74
2021/01/09 01:16:18;;;;;;;8.90;3.45;;;-0.90;99.90;;;;;;5056653;28;20064;-74
2021/01/09 01:18:44;;;;;;;7.07;2.70;;;-0.90;99.90;;;;;;5056076;28;20058;-74
2021/01/09 01:21:09;;;;;;;6.88;2.65;;;-1.00;99.90;;;;;;5055808;28;20110;-74
2021/01/09 01:23:35;;;;;;;6.40;2.72;;;-1.10;99.90;;;;;;5055976;28;20029;-74
2021/01/09 01:26:00;;;;;;;7.57;2.45;;;-1.10;99.90;;;;;;5056218;28;20108;-74
2021/01/09 01:28:26;;;;;;;7.25;2.85;;;-1.10;99.90;;;;;;5055820;28;20048;-74
2021/01/09 01:30:51;;;;;;;9.02;2.72;;;-1.20;99.90;;;;;;5038008;28;20022;-74
2021/01/09 01:33:17;;;;;;;11.20;3.00;;;-1.10;99.90;;;;;;5055652;28;20555;-74
2021/01/09 01:35:42;;;;;;;9.07;3.30;;;-1.10;99.90;;;;;;5037666;28;20527;-75
2021/01/09 01:38:08;;;;;;;8.93;2.35;;;-1.20;99.90;;;;;;5055688;28;20036;-74
2021/01/09 01:40:33;;;;;;;7.53;2.85;;;-1.20;99.90;;;;;;5037835;28;20115;-74
2021/01/09 01:42:59;;;;;;;6.50;2.75;;;-1.20;99.90;;;;;;5053926;28;20021;-75
2021/01/09 01:45:24;;;;;;;7.63;3.55;;;-1.10;99.90;;;;;;5075625;28;20025;-74
2021/01/09 01:47:50;;;;;;;6.97;2.47;;;-1.10;99.90;;;;;;5075282;28;20036;-74
2021/01/09 01:50:16;;;;;;;5.55;2.17;;;-1.10;99.90;;;;;;5057550;28;20035;-74
2021/01/09 01:52:44;;;;;;;7.93;2.55;;;-1.10;99.90;;;;;;5055702;28;20059;-74
2021/01/09 01:55:10;;;;;;;18.73;3.58;;;-1.10;99.90;;;;;;5075277;28;20021;-74
2021/01/09 01:57:36;;;;;;;8.48;3.10;;;-1.10;99.90;;;;;;5075716;28;20408;-74
2021/01/09 02:00:03;;;;;;;7.60;2.78;;;-1.10;99.90;;;;;;5057225;28;20040;-74
2021/01/09 02:02:29;;;;;;;8.50;3.03;;;-1.10;99.90;;;;;;5062648;28;20060;-74
2021/01/09 02:05:00;;;;;;;7.97;2.72;;;-1.10;99.90;;;;;;5055239;28;20122;-76
2021/01/09 02:07:28;;;;;;;9.52;3.35;;;-1.00;99.90;;;;;;5055131;28;20040;-75
2021/01/09 02:09:56;;;;;;;10.30;3.25;;;-1.00;99.90;;;;;;5054924;28;20117;-74
2021/01/09 02:12:43;;;;;;;9.97;3.37;;;-1.00;99.90;;;;;;5066018;28;20028;-74
2021/01/09 02:15:11;;;;;;;10.52;3.17;;;-0.90;99.90;;;;;;5074945;28;20258;-74
2021/01/09 02:17:39;;;;;;;8.27;2.80;;;-0.90;99.90;;;;;;5056726;28;20031;-74
2021/01/09 02:20:06;;;;;;;8.13;2.60;;;-0.90;99.90;;;;;;5057005;28;20028;-74
2021/01/09 02:22:39;;;;;;;6.03;3.00;;;-0.80;99.90;;;;;;5062684;28;20055;-74
2021/01/09 02:25:05;;;;;;;8.48;3.50;;;-0.80;99.90;;;;;;5037036;28;20123;-74
2021/01/09 02:27:30;;;;;;;8.75;3.03;;;-0.80;99.90;;;;;;5036696;28;20477;-74
2021/01/09 02:30:15;;;;;;;8.18;3.35;;;-0.70;99.90;;;;;;5055351;28;20036;-74
2021/01/09 02:32:55;;;;;;;8.73;3.03;;;-0.70;99.90;;;;;;5067141;28;20031;-74
2021/01/09 02:35:23;;;;;;;8.15;2.50;;;-0.70;99.90;;;;;;5056832;28;20025;-74
2021/01/09 02:37:48;;;;;;;7.97;2.60;;;-0.70;99.90;;;;;;5056387;28;20025;-73
2021/01/09 02:40:17;;;;;;;8.90;2.80;;;-0.70;99.90;;;;;;5074828;28;20024;-74
2021/01/09 02:42:43;;;;;;;8.43;2.72;;;-0.80;99.90;;;;;;5043123;28;20388;-74
2021/01/09 02:45:09;;;;;;;8.85;2.90;;;-0.80;99.90;;;;;;5054252;28;20032;-76
2021/01/09 02:47:34;;;;;;;8.55;2.58;;;-0.80;99.90;;;;;;5054365;28;20489;-74
2021/01/09 02:50:00;;;;;;;6.03;2.42;;;-0.80;99.90;;;;;;5054328;28;20029;-75
2021/01/09 02:52:26;;;;;;;9.63;2.92;;;-0.90;99.90;;;;;;5054772;28;20031;-74
2021/01/09 02:54:51;;;;;;;8.88;2.40;;;-0.90;99.90;;;;;;5036523;28;20024;-74
2021/01/09 02:57:17;;;;;;;7.05;2.58;;;-0.90;99.90;;;;;;5054313;28;20056;-74
2021/01/09 02:59:42;;;;;;;13.57;2.85;;;-0.90;99.90;;;;;;5054178;28;20433;-74
2021/01/09 03:02:08;;;;;;;6.55;2.67;;;-1.00;99.90;;;;;;5053997;28;20021;-74
2021/01/09 03:04:33;;;;;;;10.55;3.22;;;-1.00;99.90;;;;;;5053912;28;20066;-76
2021/01/09 03:06:59;;;;;;;10.80;2.97;;;-1.00;99.90;;;;;;5053736;28;20025;-74
2021/01/09 03:09:26;;;;;;;10.25;3.75;;;-1.00;99.90;;;;;;5054033;28;20021;-74
2021/01/09 03:11:52;;;;;;;8.48;2.83;;;-1.10;99.90;;;;;;5035596;28;20049;-74
2021/01/09 03:14:20;;;;;;;8.25;2.30;;;-1.10;99.90;;;;;;5054536;28;20055;-74
2021/01/09 03:16:46;;;;;;;7.20;1.80;;;-1.20;99.90;;;;;;5053929;28;20465;-74
2021/01/09 03:19:11;;;;;;;7.85;3.28;;;-1.20;99.90;;;;;;5035932;28;20021;-74
2021/01/09 03:21:37;;;;;;;8.35;3.05;;;-1.30;99.90;;;;;;5054166;28;20104;-74
2021/01/09 03:24:02;;;;;;;6.25;2.88;;;-1.30;99.90;;;;;;5054675;28;20162;-74
2021/01/09 03:26:28;;;;;;;5.82;2.85;;;-1.30;99.90;;;;;;5053759;28;20029;-75
2021/01/09 03:28:54;;;;;;;6.80;2.40;;;-1.40;99.90;;;;;;5053892;28;20060;-74
2021/01/09 03:31:20;;;;;;;8.50;2.95;;;-1.40;99.90;;;;;;5053824;28;20017;-74
2021/01/09 03:33:46;;;;;;;8.32;3.08;;;-1.40;99.90;;;;;;5070941;28;20100;-74
2021/01/09 03:36:11;;;;;;;11.35;3.08;;;-1.40;99.90;;;;;;5073897;28;20029;-74
2021/01/09 03:38:37;;;;;;;5.38;2.38;;;-1.40;99.90;;;;;;5073601;28;20086;-74
2021/01/09 03:41:03;;;;;;;6.35;2.67;;;-1.50;99.90;;;;;;5073557;28;20097;-74
2021/01/09 03:43:28;;;;;;;9.60;3.38;;;-1.40;99.90;;;;;;5072803;28;20111;-74
2021/01/09 03:45:54;;;;;;;6.22;2.80;;;-1.50;99.90;;;;;;5074185;28;20036;-74
2021/01/09 03:48:19;;;;;;;7.75;3.10;;;-1.50;99.90;;;;;;5073651;28;20501;-74
2021/01/09 03:50:45;;;;;;;8.68;3.00;;;-1.50;99.90;;;;;;5073591;28;20028;-75
2021/01/09 03:53:10;;;;;;;7.63;2.60;;;-1.60;99.90;;;;;;5043671;28;20473;-74
2021/01/09 03:55:36;;;;;;;7.95;2.60;;;-1.50;99.90;;;;;;5053473;28;20029;-74
2021/01/09 03:58:02;;;;;;;6.35;2.92;;;-1.60;99.90;;;;;;5053464;28;20367;-74
2021/01/09 04:00:27;;;;;;;10.27;2.97;;;-1.60;99.90;;;;;;5035732;28;20417;-74
2021/01/09 04:02:53;;;;;;;7.10;2.55;;;-1.60;99.90;;;;;;5062138;28;20025;-74
2021/01/09 04:05:19;;;;;;;8.90;3.50;;;-1.60;99.90;;;;;;5073463;28;20032;-75
2021/01/09 04:07:44;;;;;;;6.45;2.88;;;-1.70;99.90;;;;;;5073469;28;20025;-73
2021/01/09 04:10:10;;;;;;;7.32;3.25;;;-1.70;99.90;;;;;;5054899;28;20082;-74
2021/01/09 04:12:36;;;;;;;9.25;3.42;;;-1.70;99.90;;;;;;5073708;28;20168;-76
2021/01/09 04:15:03;;;;;;;9.02;3.22;;;-1.70;99.90;;;;;;5073607;28;20025;-75
2021/01/09 04:17:29;;;;;;;9.52;3.35;;;-1.70;99.90;;;;;;5073575;28;20465;-76
2021/01/09 04:19:54;;;;;;;8.07;3.03;;;-1.70;99.90;;;;;;5073351;28;20029;-74
2021/01/09 04:22:20;;;;;;;6.65;2.78;;;-1.80;99.90;;;;;;5055654;28;20029;-74
2021/01/09 04:24:45;;;;;;;10.07;3.53;;;-1.80;99.90;;;;;;5039263;28;20051;-74
2021/01/09 04:27:11;;;;;;;8.70;3.20;;;-1.80;99.90;;;;;;5056988;28;20476;-73
2021/01/09 04:29:36;;;;;;;8.25;3.05;;;-1.80;99.90;;;;;;5038992;28;20021;-74
2021/01/09 04:32:02;;;;;;;7.15;2.78;;;-1.80;99.90;;;;;;5071494;28;20032;-74
2021/01/09 04:34:28;;;;;;;10.43;2.72;;;-1.70;99.90;;;;;;5076713;28;20070;-74
2021/01/09 04:36:54;;;;;;;9.88;2.92;;;-1.80;99.90;;;;;;5076678;28;20528;-75
2021/01/09 04:39:21;;;;;;;8.38;3.28;;;-1.80;99.90;;;;;;5077197;28;20147;-76
2021/01/09 04:41:47;;;;;;;11.57;3.28;;;-1.80;99.90;;;;;;5075893;28;20107;-74
2021/01/09 04:44:13;;;;;;;11.73;3.42;;;-1.90;99.90;;;;;;5076552;28;20028;-74
2021/01/09 04:46:49;;;;;;;6.65;2.67;;;-1.90;99.90;;;;;;5076468;28;20111;-74
2021/01/09 04:49:16;;;;;;;9.90;3.50;;;-1.90;99.90;;;;;;5058492;28;20024;-74
2021/01/09 04:51:42;;;;;;;8.20;3.50;;;-1.90;99.90;;;;;;5065619;28;20061;-74
2021/01/09 04:54:12;;;;;;;7.53;3.20;;;-1.90;99.90;;;;;;5038488;28;20017;-74
2021/01/09 04:56:39;;;;;;;6.25;2.67;;;-1.90;99.90;;;;;;5038457;28;20107;-74
2021/01/09 04:59:04;;;;;;;9.50;3.05;;;-1.90;99.90;;;;;;5056348;28;20025;-74
2021/01/09 05:01:30;;;;;;;10.23;3.00;;;-1.90;99.90;;;;;;5038446;28;20091;-74
2021/01/09 05:03:59;;;;;;;8.15;3.83;;;-1.90;99.90;;;;;;5038098;28;20482;-74
2021/01/09 05:06:24;;;;;;;8.23;3.25;;;-1.90;99.90;;;;;;5056270;28;20059;-74
2021/01/09 05:08:50;;;;;;;8.63;2.97;;;-1.90;99.90;;;;;;5037740;28;20060;-74
2021/01/09 05:11:19;;;;;;;8.18;2.80;;;-1.90;99.90;;;;;;5056133;28;20051;-74
2021/01/09 05:13:48;;;;;;;7.57;3.22;;;-1.90;99.90;;;;;;5056473;28;20025;-74
2021/01/09 05:16:14;;;;;;;;;;;-1.90;99.90;;;;;;5057032;28;20024;-74
2021/01/09 05:18:40;;;;;;;5.38;2.78;;;-1.90;99.90;;;;;;5056265;28;19988;-74
2021/01/09 05:21:10;;;;;;;8.55;3.20;;;-1.90;99.90;;;;;;5056113;28;20021;-74
2021/01/09 05:23:51;;;;;;;8.32;3.55;;;-1.90;99.90;;;;;;5038198;28;20436;-74
2021/01/09 05:26:21;;;;;;;7.70;3.17;;;-1.90;99.90;;;;;;5056387;28;20021;-75
2021/01/09 05:28:56;;;;;;;5.05;2.58;;;-1.90;99.90;;;;;;5055949;28;20025;-75
2021/01/09 05:31:23;;;;;;;5.60;2.42;;;-1.90;99.90;;;;;;5056365;28;20017;-74
2021/01/09 05:33:50;;;;;;;5.18;2.45;;;-1.90;99.90;;;;;;5055538;28;20025;-74
2021/01/09 05:36:16;;;;;;;7.68;2.85;;;-1.90;99.90;;;;;;5056151;28;20028;-74
2021/01/09 05:38:44;;;;;;;7.60;2.90;;;-1.90;99.90;;;;;;5055706;28;20493;-74
2021/01/09 05:41:12;;;;;;;7.05;2.55;;;-1.90;99.90;;;;;;5055931;28;20025;-74
2021/01/09 05:43:41;;;;;;;8.77;2.38;;;-1.90;99.90;;;;;;5055574;28;20025;-74
2021/01/09 05:46:07;;;;;;;6.10;2.65;;;-1.90;99.90;;;;;;5055615;28;20099;-74
2021/01/09 05:48:35;;;;;;;7.50;2.72;;;-2.00;99.90;;;;;;5055302;28;20394;-74
2021/01/09 05:51:04;;;;;;;7.32;2.60;;;-2.00;99.90;;;;;;5055342;28;20033;-74
2021/01/09 05:53:44;;;;;;;6.95;2.50;;;-2.10;99.90;;;;;;5055580;28;20362;-74
2021/01/09 05:56:11;;;;;;;7.50;2.83;;;-2.10;99.90;;;;;;5037786;28;20059;-74
2021/01/09 05:58:37;;;;;;;9.10;2.80;;;-2.10;99.90;;;;;;5037659;28;20368;-74
2021/01/09 06:01:13;;;;;;;10.38;3.65;;;-2.10;99.90;;;;;;5037741;28;20048;-74
2021/01/09 06:03:41;;;;;;;5.80;2.60;;;-2.10;99.90;;;;;;5055489;28;20029;-74
2021/01/09 06:06:25;;;;;;;7.80;3.08;;;-2.20;99.90;;;;;;5055828;28;20021;-74
2021/01/09 06:09:05;;;;;;;9.18;2.88;;;-2.10;99.90;;;;;;5055578;28;20017;-74
2021/01/09 06:11:41;;;;;;;6.72;2.67;;;-2.10;99.90;;;;;;5037351;28;20028;-74
2021/01/09 06:14:12;;;;;;;6.50;2.55;;;-2.10;99.90;;;;;;5055021;28;20428;-74
2021/01/09 06:16:40;;;;;;;8.90;2.97;;;-2.10;99.90;;;;;;5037099;28;20045;-74
2021/01/09 06:19:07;;;;;;;8.52;3.08;;;-2.10;99.90;;;;;;5055430;28;20036;-74
2021/01/09 06:21:34;;;;;;;7.15;2.60;;;-2.10;99.90;;;;;;5055951;28;20047;-74
2021/01/09 06:24:02;;;;;;;11.70;3.47;;;-2.00;99.90;;;;;;5037540;28;20028;-74
2021/01/09 06:26:29;;;;;;;8.83;3.10;;;-2.00;99.90;;;;;;5037517;28;20421;-74
2021/01/09 06:28:57;;;;;;;4.65;2.33;;;-2.00;99.90;;;;;;5055348;28;20102;-73
2021/01/09 06:31:28;;;;;;;6.13;2.58;;;-2.00;99.90;;;;;;5055814;28;20492;-74
2021/01/09 06:34:00;;;;;;;6.32;2.75;;;-2.00;99.90;;;;;;5037441;28;20017;-74
2021/01/09 06:36:26;;;;;;;5.72;2.00;;;-2.10;99.90;;;;;;5055521;28;20021;-74
2021/01/09 06:38:54;;;;;;;5.95;2.13;;;-2.10;99.90;;;;;;5054771;28;20358;-76
2021/01/09 06:41:22;;;;;;;10.47;3.00;;;-2.10;99.90;;;;;;5055001;28;20477;-74
2021/01/09 06:43:50;;;;;;;6.72;2.70;;;-2.20;99.90;;;;;;5055484;28;20443;-73
2021/01/09 06:46:31;;;;;;;6.45;2.78;;;-2.20;99.90;;;;;;5073989;28;20036;-76
2021/01/09 06:49:00;;;;;;;5.97;1.80;;;-2.20;99.90;;;;;;5074383;28;20071;-76
2021/01/09 06:51:35;;;;;;;8.95;2.33;;;-2.30;99.90;;;;;;5056486;28;20059;-75
2021/01/09 06:54:15;;;;;;;5.45;2.28;;;-2.30;99.90;;;;;;5072044;28;20039;-76
2021/01/09 06:56:43;;;;;;;7.97;2.42;;;-2.30;99.90;;;;;;5036212;28;20504;-76
2021/01/09 06:59:08;;;;;;;11.82;2.55;;;-2.20;99.90;;;;;;5036130;28;20029;-76
2021/01/09 07:01:38;;;;;;;7.22;2.75;;;-2.20;99.90;;;;;;5054236;28;20481;-74
2021/01/09 07:04:04;;;;;;;7.07;2.47;;;-2.20;99.90;;;;;;5038887;28;20032;-74
2021/01/09 07:06:54;;;;;;;7.15;2.78;;;-2.20;99.90;;;;;;5073920;28;20591;-74
2021/01/09 07:09:24;;;;;;;7.55;2.33;;;-2.10;99.90;;;;;;5074043;28;20029;-75
2021/01/09 07:11:51;;;;;;;7.85;2.78;;;-2.10;99.90;;;;;;5074208;28;20082;-74
2021/01/09 07:14:17;;;;;;;8.50;1.70;;;-2.10;99.90;;;;;;5056380;28;20423;-74
2021/01/09 07:16:46;;;;;;;5.38;2.35;;;-2.10;99.90;;;;;;5055975;28;20021;-76
2021/01/09 07:19:13;;;;;;;6.55;1.77;;;-2.10;99.90;;;;;;5074552;28;20021;-74
2021/01/09 07:21:39;;;;;;;4.80;1.70;;;-2.00;99.90;;;;;;5074372;28;20511;-74
2021/01/09 07:24:09;;;;;;;5.18;1.77;;;-2.00;99.90;;;;;;5074436;28;20032;-74
2021/01/09 07:26:35;;;;;;;4.85;1.85;;;-0.90;99.90;;;;;;5075058;28;20031;-74
2021/01/09 07:29:04;;;;;;;5.13;1.67;;;-1.90;99.90;;;;;;5074463;28;20077;-74
2021/01/09 07:31:31;;;;;;;4.20;1.58;;;-1.90;99.90;;;;;;5074190;28;20115;-74
2021/01/09 07:33:59;;;;;;;4.78;1.67;;;-1.90;99.90;;;;;;5074850;28;20491;-75
2021/01/09 07:36:26;;;;;;;6.05;1.42;;;-1.80;99.90;;;;;;5056186;28;20032;-75
2021/01/09 07:39:02;;;;;;;6.50;1.80;;;-1.80;99.90;;;;;;5074406;28;20473;-75
2021/01/09 07:41:35;;;;;;;7.68;1.88;;;-1.80;99.90;;;;;;5056729;28;20030;-75
2021/01/09 07:44:15;;;;;;;4.30;1.33;;;-1.80;99.90;;;;;;5056591;28;20025;-75
2021/01/09 07:46:58;;;;;;;6.15;1.60;;;-1.70;99.90;;;;;;5073898;28;20024;-75
2021/01/09 07:49:32;;;;;;;7.63;1.52;;;-1.70;99.90;;;;;;5074082;28;20056;-75
2021/01/09 07:52:02;;;;;;;2.97;1.00;;;-1.80;99.90;;;;;;5056548;28;20496;-75
2021/01/09 07:54:38;;;;;;;3.22;1.00;;;-1.80;99.90;;;;;;5073966;28;20089;-75
2021/01/09 07:57:18;;;;;;;4.32;1.60;;;-1.80;99.90;;;;;;5057921;28;20078;-75
2021/01/09 07:59:53;;;;;;;4.93;1.38;;;-1.80;99.90;;;;;;5078386;28;20115;-75
2021/01/09 08:02:23;;;;;;;4.53;1.42;;;-1.80;99.90;;;;;;5060305;28;20025;-75
2021/01/09 08:04:48;;;;;;;;;;;-2.30;99.90;;;;;;5060449;28;20538;-75
2021/01/09 08:07:17;;;;;;;4.60;1.15;;;-1.80;99.90;;;;;;5060271;28;19904;-75
2021/01/09 08:09:43;;;;;;;6.95;1.70;;;-1.80;99.90;;;;;;5059871;28;20365;-75
2021/01/09 08:12:09;;;;;;;7.75;2.17;;;-1.70;99.90;;;;;;5060100;28;20028;-74
2021/01/09 08:14:34;;;;;;;8.18;1.60;;;-1.70;99.90;;;;;;5077780;28;20021;-74
2021/01/09 08:17:10;;;;;;;3.75;1.30;;;-1.60;99.90;;;;;;5059540;28;20024;-74
2021/01/09 08:19:35;;;;;;;5.95;1.70;;;-1.50;99.90;;;;;;5059756;28;20056;-74
2021/01/09 08:22:03;;;;;;;3.15;1.25;;;-1.50;99.90;;;;;;5078139;28;20028;-74
2021/01/09 08:24:29;;;;;;;9.13;2.05;;;-1.40;99.90;;;;;;5064656;28;20025;-74
2021/01/09 08:26:56;;;;;;;7.95;1.77;;;-1.30;99.90;;;;;;5057872;28;20040;-74
2021/01/09 08:29:25;;;;;;;9.52;2.45;;;-1.20;99.90;;;;;;5057671;28;20025;-75
2021/01/09 08:31:52;;;;;;;4.05;1.40;;;-1.00;99.90;;;;;;5040058;28;20017;-74
2021/01/09 08:34:19;;;;;;;5.00;1.60;;;-0.90;99.90;;;;;;5057788;28;20515;-74
2021/01/09 08:36:44;;;;;;;5.40;1.25;;;-0.80;99.90;;;;;;5057886;28;20025;-74
2021/01/09 08:39:10;;;;;;;4.75;1.95;;;-0.70;99.90;;;;;;5039685;28;20056;-74
2021/01/09 08:41:40;;;;;;;7.93;1.85;;;-0.60;99.90;;;;;;5057275;28;20115;-75
2021/01/09 08:44:07;;;;;;;7.07;1.83;;;-0.50;99.90;;;;;;5048391;28;20021;-76
2021/01/09 08:46:34;;;;;;;8.65;1.63;;;-0.40;99.90;;;;;;5059040;28;20039;-75
2021/01/09 08:49:00;;;;;;;3.80;1.45;;;-0.30;99.90;;;;;;5058795;28;20020;-75
2021/01/09 08:51:28;;;;;;;6.50;1.70;;;-0.10;99.90;;;;;;5076666;28;20027;-75
2021/01/09 08:53:59;;;;;;;5.30;0.90;;;0.00;99.90;;;;;;5071105;22;20076;-77
2021/01/09 08:56:30;;;;;;;8.98;2.13;;;0.00;99.90;;;;;;5061170;28;20024;-74
2021/01/09 08:59:02;;;;;;;7.07;1.40;;;0.20;99.90;;;;;;5057982;28;20043;-74
2021/01/09 09:01:48;;;;;;;6.05;1.60;;;0.10;99.90;;;;;;5038796;28;20068;-74
2021/01/09 09:04:16;;;;;;;8.32;1.83;;;0.30;99.90;;;;;;5047191;28;20038;-74
2021/01/09 09:06:43;;;;;;;5.28;1.13;;;0.40;99.90;;;;;;5036659;28;20034;-74
2021/01/09 09:09:14;;;;;;;7.30;1.35;;;0.40;99.90;;;;;;5036109;28;20038;-74
2021/01/09 09:11:41;;;;;;;3.53;1.23;;;0.60;99.90;;;;;;5019287;28;20021;-74
2021/01/09 09:14:08;;;;;;;7.80;1.75;;;0.70;99.90;;;;;;5045892;28;20101;-74
2021/01/09 09:16:36;;;;;;;5.25;1.75;;;0.80;99.90;;;;;;5056467;28;20108;-74
2021/01/09 09:19:10;;;;;;;6.95;2.17;;;0.90;99.90;;;;;;5059147;28;20021;-76
2021/01/09 09:21:40;;;;;;;6.57;1.90;;;1.00;99.90;;;;;;5040026;28;20029;-74
2021/01/09 09:24:06;;;;;;;6.65;1.33;;;1.00;99.90;;;;;;5032795;28;20021;-77
2021/01/09 09:26:32;;;;;;;5.28;1.65;;;1.00;99.90;;;;;;5019023;28;20400;-74
2021/01/09 09:28:59;;;;;;;9.27;3.05;;;1.10;99.90;;;;;;5037761;28;20036;-74
2021/01/09 09:31:43;;;;;;;12.00;2.80;;;1.10;99.90;;;;;;5036231;28;20052;-74
2021/01/09 09:34:15;;;;;;;7.03;1.20;;;1.10;99.90;;;;;;5018865;28;20040;-74
2021/01/09 09:36:58;;;;;;;6.25;1.65;;;1.20;99.90;;;;;;5036547;28;20057;-74
2021/01/09 09:39:25;;;;;;;4.85;1.80;;;1.20;99.90;;;;;;5018556;28;20410;-76
2021/01/09 09:41:51;;;;;;;5.70;2.42;;;1.20;99.90;;;;;;5036379;28;20026;-76
2021/01/09 09:44:17;;;;;;;3.47;1.95;;;1.20;99.90;;;;;;5018405;28;20444;-77
2021/01/09 09:46:43;;;;;;;6.78;1.55;;;1.20;99.90;;;;;;5018730;28;20025;-76
2021/01/09 09:49:09;;;;;;;7.50;1.98;;;1.20;99.90;;;;;;5036009;28;20025;-72
2021/01/09 09:51:38;;;;;;;5.57;1.90;;;1.20;99.90;;;;;;5036064;28;20022;-72
2021/01/09 09:54:03;;;;;;;4.60;1.92;;;1.20;99.90;;;;;;5036120;28;20446;-73
2021/01/09 09:56:37;;;;;;;7.25;1.90;;;1.20;99.90;;;;;;5035841;28;20083;-74
2021/01/09 09:59:04;;;;;;;3.95;1.85;;;1.20;99.90;;;;;;5018273;28;20021;-74
2021/01/09 10:01:31;;;;;;;4.03;2.03;;;1.20;99.90;;;;;;5045869;28;20119;-76
2021/01/09 10:03:57;;;;;;;13.43;4.70;;;1.10;99.90;;;;;;5055633;28;20048;-76
2021/01/09 10:06:34;;;;;;;15.23;4.75;;;1.10;99.90;;;;;;5037439;28;20112;-76
2021/01/09 10:09:09;;;;;;;29.92;9.75;;;1.10;99.90;;;;;;5037404;28;20043;-75
2021/01/09 10:11:35;;;;;;;15.95;6.15;;;1.10;99.90;;;;;;5044787;28;20025;-76
2021/01/09 10:14:04;;;;;;;19.48;7.20;;;1.10;99.90;;;;;;5017776;28;20040;-76
2021/01/09 10:16:31;;;;;;;14.23;4.97;;;1.10;99.90;;;;;;5035061;28;20019;-76
2021/01/09 10:18:57;;;;;;;10.82;4.22;;;1.10;99.90;;;;;;5035283;28;20453;-76
2021/01/09 10:21:30;;;;;;;8.93;2.83;;;1.20;99.90;;;;;;5025027;28;20048;-76
2021/01/09 10:23:56;;;;;;;9.93;3.38;;;1.30;99.90;;;;;;5041571;28;20529;-76
2021/01/09 10:26:34;;;;;;;11.82;4.03;;;1.40;99.90;;;;;;5017448;28;20117;-76
2021/01/09 10:29:01;;;;;;;8.27;2.60;;;1.50;99.90;;;;;;5034918;28;20034;-76
2021/01/09 10:31:37;;;;;;;5.43;2.33;;;1.60;99.90;;;;;;5017343;28;20079;-76
2021/01/09 10:34:05;;;;;;;4.18;2.25;;;1.80;99.90;;;;;;5048139;28;20025;-76
2021/01/09 10:36:36;;;;;;;8.13;2.97;;;2.00;99.90;;;;;;5036666;28;20385;-76
2021/01/09 10:39:05;;;;;;;9.50;2.75;;;2.10;99.90;;;;;;5054437;28;20370;-76
2021/01/09 10:41:31;;;;;;;6.22;2.38;;;2.20;99.90;;;;;;5036461;28;20017;-75
2021/01/09 10:43:56;;;;;;;10.07;3.65;;;2.40;99.90;;;;;;5054012;28;20048;-76
2021/01/09 10:46:24;;;;;;;7.80;2.80;;;2.50;99.90;;;;;;5054727;28;20024;-76
2021/01/09 10:48:50;;;;;;;13.68;5.07;;;2.60;99.90;;;;;;5036382;28;20025;-76
2021/01/09 10:51:20;;;;;;;10.32;3.53;;;2.80;99.90;;;;;;5132726;22;20093;-74
2021/01/09 10:53:47;;;;;;;7.60;1.95;;;2.90;99.90;;;;;;5094548;28;20016;-74
2021/01/09 10:56:12;;;;;;;6.65;2.00;;;3.00;99.90;;;;;;5094462;28;20027;-74
2021/01/09 10:58:39;;;;;;;9.93;1.73;;;3.20;99.90;;;;;;5094174;28;20028;-74
2021/01/09 11:01:05;;;;;;;6.78;1.85;;;3.30;99.90;;;;;;5094542;28;20537;-74
2021/01/09 11:03:31;;;;;;;6.93;2.17;;;3.40;99.90;;;;;;5097210;28;20026;-76
2021/01/09 11:05:57;;;;;;;6.88;1.75;;;3.50;99.90;;;;;;5097136;28;20028;-73
2021/01/09 11:08:27;;;;;;;3.80;1.90;;;3.60;99.90;;;;;;5071897;28;20028;-74
2021/01/09 11:10:53;;;;;;;4.05;1.52;;;3.80;99.90;;;;;;5075631;28;20024;-74
2021/01/09 11:13:19;;;;;;;4.68;1.63;;;3.90;99.90;;;;;;5062108;28;20024;-74
2021/01/09 11:15:46;;;;;;;5.10;1.75;;;4.00;99.90;;;;;;5092090;28;20536;-75
2021/01/09 11:18:12;;;;;;;10.77;1.98;;;4.10;99.90;;;;;;5082524;28;20058;-74
2021/01/09 11:20:38;;;;;;;5.53;1.77;;;4.20;99.90;;;;;;5080348;28;20036;-75
2021/01/09 11:23:04;;;;;;;6.22;1.42;;;4.30;99.90;;;;;;5093674;28;20463;-74
2021/01/09 11:25:29;;;;;;;8.15;1.02;;;4.50;99.90;;;;;;5076557;28;20058;-74
2021/01/09 11:27:55;;;;;;;6.40;1.33;;;4.60;99.90;;;;;;5076931;28;20108;-74
2021/01/09 11:30:20;;;;;;;13.93;1.23;;;4.60;99.90;;;;;;5073652;28;20499;-74
2021/01/09 11:32:46;;;;;;;9.45;1.70;;;4.70;99.90;;;;;;5055309;28;20019;-74
2021/01/09 11:35:12;;;;;;;4.65;0.75;;;4.60;99.90;;;;;;5055696;28;20024;-74
2021/01/09 11:37:40;;;;;;;5.03;0.52;;;4.70;99.90;;;;;;5087873;28;20047;-72
2021/01/09 11:40:06;;;;;;;4.38;0.32;;;4.80;99.90;;;;;;5071103;28;20012;-73
2021/01/09 11:42:31;;;;;;;4.38;0.52;;;4.90;99.90;;;;;;5056285;28;20431;-74
2021/01/09 11:44:57;;;;;;;6.72;0.28;;;5.00;99.90;;;;;;5091849;28;20096;-73
2021/01/09 11:47:23;;;;;;;5.97;0.55;;;5.10;99.90;;;;;;5093789;28;20112;-73
2021/01/09 11:49:48;;;;;;;5.28;0.20;;;5.20;99.90;;;;;;5085611;28;20067;-73
2021/01/09 11:52:16;;;;;;;4.80;0.50;;;5.40;99.90;;;;;;5092758;28;20448;-73
2021/01/09 11:54:42;;;;;;;12.30;1.10;;;5.50;99.90;;;;;;5092759;28;20380;-73
2021/01/09 11:57:07;;;;;;;3.45;0.60;;;5.70;99.90;;;;;;5085653;28;20028;-73
2021/01/09 11:59:33;;;;;;;2.70;0.70;;;5.80;99.90;;;;;;5087462;28;20503;-73
2021/01/09 12:01:58;;;;;;;0.98;0.38;;;6.00;99.90;;;;;;5055774;28;20016;-73
2021/01/09 12:04:24;;;;;;;5.22;0.88;;;6.20;99.90;;;;;;5056096;28;20472;-73
2021/01/09 12:06:49;;;;;;;8.98;0.70;;;6.30;99.90;;;;;;5055998;28;20032;-73
2021/01/09 12:09:18;;;;;;;8.70;1.38;;;6.40;99.90;;;;;;5076913;28;20025;-73
2021/01/09 12:11:44;;;;;;;;;;;6.40;99.90;;;;;;5080420;28;20427;-73
2021/01/09 12:14:12;;;;;;;2.38;0.15;;;6.40;99.90;;;;;;5073883;28;19905;-73
2021/01/09 12:16:38;;;;;;;4.68;0.20;;;6.30;99.90;;;;;;5055312;28;20423;-73
2021/01/09 12:19:03;;;;;;;6.60;1.00;;;6.10;99.90;;;;;;5055041;28;20017;-74
2021/01/09 12:21:29;;;;;;;3.65;0.63;;;6.00;99.90;;;;;;5083804;28;20036;-73
2021/01/09 12:23:56;;;;;;;2.75;0.40;;;5.80;99.90;;;;;;5090544;28;20395;-74
2021/01/09 12:26:22;;;;;;;8.15;1.10;;;5.70;99.90;;;;;;5076212;28;20111;-74
2021/01/09 12:29:10;;;;;;;2.85;0.10;;;5.60;99.90;;;;;;5079610;28;20032;-74
2021/01/09 12:31:36;;;;;;;2.88;0.10;;;5.50;99.90;;;;;;5066015;28;20018;-73
2021/01/09 12:34:03;;;;;;;1.80;0.20;;;5.40;99.90;;;;;;5093265;28;20480;-73
2021/01/09 12:36:29;;;;;;;3.72;0.15;;;5.40;99.90;;;;;;5073984;28;20017;-73
2021/01/09 12:38:54;;;;;;;4.78;1.02;;;5.60;99.90;;;;;;5076234;28;20357;-73
2021/01/09 12:41:20;;;;;;;2.55;0.20;;;5.90;99.90;;;;;;5082390;28;20024;-73
2021/01/09 12:43:46;;;;;;;2.78;0.25;;;6.10;99.90;;;;;;5073553;28;20021;-74
2021/01/09 12:46:12;;;;;;;2.75;0.10;;;6.30;99.90;;;;;;5076635;28;20020;-73
2021/01/09 12:48:37;;;;;;;4.10;0.32;;;6.40;99.90;;;;;;5079131;28;20039;-74
2021/01/09 12:51:03;;;;;;;1.10;0.30;;;6.40;99.90;;;;;;5085794;28;20082;-74